Time;durP1;ratioP1;P1;durP2;ratioP2;P2;SDS_P1;SDS_P2;PMS_P1;PMS_P2;Temp;Humidity;BMP_temperature;BMP_pressure;BME280_temperature;BME280_humidity;BME280_pressure;Samples;Min_cycle;Max_cycle;Signal;HPM_P1;HPM_P2
2021/12/17 00:04:30;;;;;;;44.83;14.55;;;;;;;;;;5139629;27;20043;-89
2021/12/17 00:06:56;;;;;;;49.03;15.38;;;;;;;;;;5122254;27;20050;-90
2021/12/17 00:09:23;;;;;;;44.30;13.80;;;;;;;;;;5139319;27;20042;-89
2021/12/17 00:11:49;;;;;;;43.50;14.50;;;;;;;;;;5139150;27;20047;-89
2021/12/17 00:14:25;;;;;;;45.67;14.10;;;;;;;;;;5121965;27;20038;-90
2021/12/17 00:16:51;;;;;;;54.17;15.48;;;;;;;;;;5121558;27;20043;-88
2021/12/17 00:48:22;;;;;;;40.55;14.65;;;;;;;;;;5139981;27;20046;-89
2021/12/17 00:49:28;;;;;;;53.63;16.23;;;;;;;;;;5140359;27;20107;-88
2021/12/17 00:51:57;;;;;;;48.25;15.85;;;;;;;;;;5139900;27;20038;-88
2021/12/17 00:54:35;;;;;;;62.65;17.42;;;;;;;;;;5137393;27;20042;-88
2021/12/17 00:57:03;;;;;;;59.03;17.45;;;;;;;;;;5156392;27;20043;-88
2021/12/17 00:59:29;;;;;;;51.42;16.30;;;;;;;;;;5120217;27;20050;-88
2021/12/17 01:01:56;;;;;;;40.10;14.80;;;;;;;;;;5120627;27;20043;-89
2021/12/17 01:04:23;;;;;;;49.83;14.32;;;;;;;;;;5121728;27;20034;-89
2021/12/17 01:06:49;;;;;;;43.97;14.70;;;;;;;;;;5120615;27;20057;-88
2021/12/17 01:09:16;;;;;;;44.22;14.43;;;;;;;;;;5120906;27;20051;-89
2021/12/17 01:11:42;;;;;;;33.08;12.77;;;;;;;;;;5120141;27;20046;-90
2021/12/17 01:14:09;;;;;;;33.42;13.43;;;;;;;;;;5138910;27;20035;-89
2021/12/17 01:16:35;;;;;;;33.97;14.05;;;;;;;;;;5120778;27;20046;-88
2021/12/17 01:22:39;;;;;;;40.22;13.15;;;;;;;;;;5075854;28;20048;-89
2021/12/17 01:25:04;;;;;;;46.53;14.45;;;;;;;;;;5075413;28;20131;-88
2021/12/17 01:35:45;;;;;;;49.83;14.18;;;;;;;;;;5076624;28;20117;-88
2021/12/17 01:41:13;;;;;;;41.50;13.88;;;8.20;99.90;;;;;;5075599;28;20143;-89
2021/12/17 01:43:43;;;;;;;44.67;13.63;;;;;;;;;;5075163;28;20055;-90
2021/12/17 01:46:10;;;;;;;48.38;14.90;;;;;;;;;;5058783;28;20044;-89
2021/12/17 01:49:22;;;;;;;34.78;12.90;;;8.40;99.90;;;;;;5075968;28;20040;-89
2021/12/17 01:55:48;;;;;;;46.10;13.38;;;;;;;;;;5141498;27;20073;-89
2021/12/17 02:00:00;;;;;;;35.42;12.10;;;;;;;;;;5141359;27;20043;-89
2021/12/17 02:02:27;;;;;;;45.00;13.93;;;;;;;;;;5141182;27;20039;-89
2021/12/17 02:04:53;;;;;;;39.35;13.88;;;;;;;;;;5141540;27;20051;-89
2021/12/17 02:07:19;;;;;;;52.63;14.75;;;;;;;;;;5124641;27;20099;-88
2021/12/17 02:29:01;;;;;;;34.95;12.63;;;;;;;;;;5141378;27;20099;-88
2021/12/17 02:31:32;;;;;;;41.58;13.70;;;;;;;;;;5124370;27;20042;-88
2021/12/17 02:34:01;;;;;;;39.42;13.43;;;;;;;;;;5142071;27;20054;-88
2021/12/17 02:36:30;;;;;;;61.03;13.48;;;;;;;;;;5141170;27;20082;-88
2021/12/17 02:39:27;;;;;;;41.03;12.75;;;;;;;;;;5124361;27;20045;-88
2021/12/17 02:47:19;;;;;;;71.22;15.48;;;8.50;99.90;;;;;;5143642;27;20042;-88
2021/12/17 02:49:47;;;;;;;140.15;20.75;;;;;;;;;;5125664;27;20038;-88
2021/12/17 02:52:13;;;;;;;74.53;17.15;;;;;;;;;;5143842;27;20050;-88
2021/12/17 02:54:40;;;;;;;73.95;18.95;;;;;;;;;;5140791;27;20051;-89
2021/12/17 02:57:07;;;;;;;110.35;21.17;;;;;;;;;;5123072;27;20030;-89
2021/12/17 02:59:34;;;;;;;81.93;19.58;;;;;;;;;;5123178;27;20045;-88
2021/12/17 03:02:02;;;;;;;138.40;23.52;;;;;;;;;;5140127;27;20046;-89
2021/12/17 03:04:29;;;;;;;54.05;16.65;;;;;;;;;;5139759;27;20043;-88
2021/12/17 03:06:56;;;;;;;101.63;20.20;;;;;;;;;;5122941;27;20603;-88
2021/12/17 03:09:36;;;;;;;109.65;21.15;;;;;;;;;;5139820;27;20043;-88
2021/12/17 03:12:02;;;;;;;88.63;19.13;;;;;;;;;;5140076;27;20051;-89
2021/12/17 03:14:29;;;;;;;60.58;17.40;;;;;;;;;;5122476;27;20049;-89
2021/12/17 03:17:06;;;;;;;63.03;18.15;;;;;;;;;;5141112;27;20055;-90
2021/12/17 03:25:01;;;;;;;96.80;21.48;;;;;;;;;;5140125;27;20042;-90
2021/12/17 03:27:27;;;;;;;45.40;16.13;;;;;;;;;;5123447;27;20090;-90
2021/12/17 03:29:53;;;;;;;48.78;15.68;;;;;;;;;;5140066;27;20054;-90
2021/12/17 03:32:19;;;;;;;43.28;15.48;;;;;;;;;;5141461;27;20102;-90
2021/12/17 03:34:45;;;;;;;67.50;18.13;;;;;;;;;;5122280;27;20049;-90
2021/12/17 03:37:11;;;;;;;49.00;16.67;;;;;;;;;;5123311;27;20076;-90
2021/12/17 03:39:38;;;;;;;88.38;19.98;;;;;;;;;;5123277;27;20042;-90
2021/12/17 03:42:07;;;;;;;30.42;14.55;;;;;;;;;;5140203;27;20050;-90
2021/12/17 03:44:33;;;;;;;63.25;18.05;;;;;;;;;;5123501;27;20047;-90
2021/12/17 03:47:00;;;;;;;36.53;15.07;;;;;;;;;;5124255;27;20675;-90
2021/12/17 03:49:27;;;;;;;32.70;14.40;;;;;;;;;;5138903;27;20183;-91
2021/12/17 03:52:05;;;;;;;35.03;15.57;;;;;;;;;;5139238;27;20047;-88
2021/12/17 03:54:33;;;;;;;34.83;14.65;;;;;;;;;;5123181;27;20047;-89
2021/12/17 03:56:59;;;;;;;26.48;12.48;;;;;;;;;;5139264;27;20475;-90
2021/12/17 03:59:25;;;;;;;30.70;14.15;;;;;;;;;;5139569;27;20051;-89
2021/12/17 04:01:51;;;;;;;30.65;13.68;;;;;;;;;;5139099;27;20502;-89
2021/12/17 04:04:17;;;;;;;27.10;12.25;;;;;;;;;;5121253;27;20043;-89
2021/12/17 04:06:43;;;;;;;33.70;13.75;;;;;;;;;;5121815;27;20051;-90
2021/12/17 04:09:10;;;;;;;61.65;17.55;;;;;;;;;;5121866;27;20137;-89
2021/12/17 04:11:36;;;;;;;46.63;16.48;;;;;;;;;;5121677;27;20038;-88
2021/12/17 04:14:02;;;;;;;40.83;14.18;;;;;;;;;;5121522;27;20042;-88
2021/12/17 04:16:31;;;;;;;33.78;13.90;;;;;;;;;;5121745;27;20085;-89
2021/12/17 04:18:58;;;;;;;51.22;15.85;;;;;;;;;;5138263;27;20047;-88
2021/12/17 04:21:24;;;;;;;40.10;14.52;;;;;;;;;;5138463;27;20547;-89
2021/12/17 04:23:53;;;;;;;65.97;18.13;;;;;;;;;;5158198;27;20078;-88
2021/12/17 04:26:20;;;;;;;33.70;13.73;;;;;;;;;;5122003;27;20046;-88
2021/12/17 04:28:49;;;;;;;38.63;13.13;;;;;;;;;;5138013;27;20085;-88
2021/12/17 04:31:16;;;;;;;31.17;12.93;;;;;;;;;;5121368;27;20046;-88
2021/12/17 04:33:43;;;;;;;27.38;11.85;;;;;;;;;;5120510;27;20053;-89
2021/12/17 04:36:11;;;;;;;27.50;11.02;;;;;;;;;;5138076;27;20518;-88
2021/12/17 04:38:37;;;;;;;32.95;11.68;;;;;;;;;;5138098;27;20047;-89
2021/12/17 04:59:45;;;;;;;33.05;10.75;;;;;;;;;;5076851;28;20544;-89
2021/12/17 05:02:12;;;;;;;35.30;11.60;;;;;;;;;;5076473;28;20390;-89
2021/12/17 05:04:38;;;;;;;34.80;11.45;;;;;;;;;;5059203;28;20082;-89
2021/12/17 05:07:07;;;;;;;26.10;9.80;;;;;;;;;;5058914;28;20051;-89
2021/12/17 05:09:45;;;;;;;31.08;11.60;;;;;;;;;;5058551;28;20071;-90
2021/12/17 05:20:40;;;;;;;31.45;11.52;;;;;;;;;;5036680;28;20508;-89
2021/12/17 05:23:06;;;;;;;28.25;11.90;;;;;;;;;;5072282;28;20049;-89
2021/12/17 05:25:32;;;;;;;37.13;12.05;;;;;;;;;;5071196;28;20051;-89
2021/12/17 05:28:02;;;;;;;35.35;12.35;;;;;;;;;;5072336;28;20135;-89
2021/12/17 05:30:29;;;;;;;36.03;12.27;;;;;;;;;;5072138;28;20044;-89
2021/12/17 05:32:55;;;;;;;27.60;11.02;;;;;;;;;;5055829;28;20052;-90
2021/12/17 05:35:21;;;;;;;25.85;11.80;;;;;;;;;;5072084;28;20054;-89
2021/12/17 05:37:47;;;;;;;28.95;10.05;;;;;;;;;;5073557;28;20047;-89
2021/12/17 05:40:14;;;;;;;32.78;11.40;;;;;;;;;;5071794;28;20050;-89
2021/12/17 05:42:41;;;;;;;24.80;10.70;;;;;;;;;;5055450;28;20134;-89
2021/12/17 05:45:20;;;;;;;28.67;10.90;;;;;;;;;;5072862;28;20579;-88
2021/12/17 05:47:46;;;;;;;31.40;11.23;;;;;;;;;;5055773;28;20075;-89
2021/12/17 05:50:12;;;;;;;21.70;9.85;;;;;;;;;;5072366;28;20049;-89
2021/12/17 05:52:38;;;;;;;21.35;9.55;;;;;;;;;;5129686;27;20073;-88
2021/12/17 05:55:05;;;;;;;26.75;11.00;;;;;;;;;;5120175;27;20043;-89
2021/12/17 05:57:31;;;;;;;30.67;10.70;;;;;;;;;;5136567;27;20046;-89
2021/12/17 05:59:57;;;;;;;23.85;10.93;;;;;;;;;;5137538;27;20043;-88
2021/12/17 06:02:23;;;;;;;25.33;9.30;;;;;;;;;;5137235;27;20050;-89
2021/12/17 06:04:49;;;;;;;20.63;9.43;;;;;;;;;;5119943;27;20045;-88
2021/12/17 06:07:24;;;;;;;20.02;9.35;;;;;;;;;;5136906;27;20059;-89
2021/12/17 06:09:52;;;;;;;20.13;8.98;;;;;;;;;;5119792;27;20054;-89
2021/12/17 06:12:18;;;;;;;21.58;9.65;;;;;;;;;;5120514;27;20042;-89
2021/12/17 06:14:44;;;;;;;24.15;9.10;;;;;;;;;;5120137;27;20429;-89
2021/12/17 06:17:10;;;;;;;24.55;9.80;;;;;;;;;;5119343;27;20042;-89
2021/12/17 06:19:36;;;;;;;24.92;9.57;;;;;;;;;;5120543;27;20561;-90
2021/12/17 06:22:03;;;;;;;20.35;9.43;;;;;;;;;;5120278;27;20515;-89
2021/12/17 06:24:29;;;;;;;23.02;8.48;;;;;;;;;;5120441;27;20038;-89
2021/12/17 06:26:55;;;;;;;27.35;8.70;;;;;;;;;;5138306;27;20043;-89
2021/12/17 06:29:21;;;;;;;24.42;9.45;;;;;;;;;;5120389;27;20039;-89
2021/12/17 06:31:47;;;;;;;28.23;9.23;;;;;;;;;;5137954;27;20405;-89
2021/12/17 06:34:13;;;;;;;18.77;8.02;;;;;;;;;;5120034;27;20038;-89
2021/12/17 06:36:39;;;;;;;18.77;9.05;;;;;;;;;;5120415;27;20559;-89
2021/12/17 06:39:05;;;;;;;22.33;8.80;;;;;;;;;;5141511;27;20046;-89
2021/12/17 06:41:31;;;;;;;18.48;8.10;;;;;;;;;;5141523;27;20038;-89
2021/12/17 06:43:59;;;;;;;19.52;7.97;;;;;;;;;;5123771;27;20047;-88
2021/12/17 06:48:57;;;;;;;20.63;8.80;;;;;;;;;;5140699;27;20043;-89
2021/12/17 06:57:51;;;;;;;21.52;8.23;;;;;;;;;;5140654;27;20562;-89
2021/12/17 07:00:06;;;;;;;22.38;8.70;;;;;;;;;;5140473;27;20511;-90
2021/12/17 07:34:43;;;;;;;22.20;8.55;;;;;;;;;;5077599;28;20052;-90
2021/12/17 07:39:39;;;;;;;25.45;9.30;;;;;;;;;;5078193;28;20048;-90
2021/12/17 07:42:05;;;;;;;28.40;10.02;;;;;;;;;;5060857;28;20598;-90
2021/12/17 07:44:31;;;;;;;27.55;10.48;;;;;;;;;;5060873;28;20074;-90
2021/12/17 07:46:57;;;;;;;20.55;9.18;;;;;;;;;;5077032;28;20055;-90
2021/12/17 07:49:23;;;;;;;20.45;8.85;;;;;;;;;;5073315;27;20058;-90
2021/12/17 07:51:49;;;;;;;25.23;9.20;;;;;;;;;;5121906;27;20043;-90
2021/12/17 07:54:15;;;;;;;20.75;9.80;;;;;;;;;;5139431;27;20067;-90
2021/12/17 07:56:42;;;;;;;19.58;9.18;;;;;;;;;;5122301;27;20049;-89
2021/12/17 07:59:09;;;;;;;29.73;9.60;;;;;;;;;;5122263;27;20046;-89
2021/12/17 08:01:36;;;;;;;19.67;9.00;;;;;;;;;;5122957;27;20095;-90
2021/12/17 08:04:03;;;;;;;25.40;9.48;;;;;;;;;;5121769;27;20074;-89
2021/12/17 08:06:29;;;;;;;19.80;9.63;;;;;;;;;;5139475;27;20094;-89
2021/12/17 08:08:55;;;;;;;31.52;11.05;;;;;;;;;;5123266;27;20046;-89
2021/12/17 08:11:22;;;;;;;29.77;11.25;;;;;;;;;;5122543;27;20042;-88
2021/12/17 08:13:48;;;;;;;26.02;10.45;;;;;;;;;;5122251;27;20415;-88
2021/12/17 08:32:03;;;;;;;28.70;12.02;;;;;;;;;;5077488;28;20048;-89
2021/12/17 08:34:29;;;;;;;20.95;11.02;;;;;;;;;;5059462;28;20048;-89
2021/12/17 08:36:55;;;;;;;18.75;10.18;;;;;;;;;;5076414;28;20134;-89
2021/12/17 08:39:22;;;;;;;27.95;12.05;;;;;;;;;;5076902;28;20052;-89
2021/12/17 08:41:52;;;;;;;22.90;10.50;;;;;;;;;;5077023;28;20101;-89
2021/12/17 08:44:18;;;;;;;28.10;12.38;;;;;;;;;;5059208;28;20385;-89
2021/12/17 08:46:44;;;;;;;29.67;11.63;;;;;;;;;;5060797;28;20059;-89
2021/12/17 08:49:10;;;;;;;23.55;11.35;;;;;;;;;;5077142;28;20516;-88
2021/12/17 08:51:36;;;;;;;25.55;10.25;;;;;;;;;;5059915;28;20052;-89
2021/12/17 08:54:03;;;;;;;28.40;11.13;;;;;;;;;;5060229;28;20496;-88
2021/12/17 08:56:30;;;;;;;24.15;11.68;;;;;;;;;;5060546;28;20044;-89
2021/12/17 08:58:56;;;;;;;19.98;9.77;;;;;;;;;;5076241;28;20508;-89
2021/12/17 09:01:22;;;;;;;26.15;10.48;;;;;;;;;;5075894;28;20135;-89
2021/12/17 09:03:48;;;;;;;22.45;9.95;;;;;;;;;;5060317;28;20400;-88
2021/12/17 09:06:17;;;;;;;28.80;10.38;;;;;;;;;;5081985;27;20195;-89
2021/12/17 09:08:43;;;;;;;23.58;10.77;;;;;;;;;;5121261;27;20043;-89
2021/12/17 09:11:10;;;;;;;21.00;10.50;;;;;;;;;;5122224;27;20046;-89
2021/12/17 09:13:36;;;;;;;23.08;11.85;;;;;;;;;;5138388;27;20050;-89
2021/12/17 09:16:06;;;;;;;21.80;10.02;;;;;;;;;;5138246;27;20117;-89
2021/12/17 09:18:32;;;;;;;24.80;10.65;;;;;;;;;;5120641;27;20099;-89
2021/12/17 09:20:58;;;;;;;22.27;10.75;;;;;;;;;;5120494;27;20475;-90
2021/12/17 09:23:24;;;;;;;28.45;11.20;;;;;;;;;;5120531;27;20134;-89
2021/12/17 09:25:50;;;;;;;26.92;11.85;;;;;;;;;;5120838;27;20077;-89
2021/12/17 09:28:16;;;;;;;32.80;12.63;;;;;;;;;;5120508;27;20494;-89
2021/12/17 09:30:43;;;;;;;24.98;10.88;;;;;;;;;;5120395;27;20078;-89
2021/12/17 09:33:09;;;;;;;21.58;11.43;;;;;;;;;;5120556;27;20133;-90
2021/12/17 09:35:35;;;;;;;20.60;10.75;;;;;;;;;;5121468;27;20105;-90
2021/12/17 09:38:01;;;;;;;20.58;11.50;;;;;;;;;;5120317;27;20039;-89
2021/12/17 09:40:27;;;;;;;21.02;10.57;;;;;;;;;;5136934;27;20047;-89
2021/12/17 09:42:53;;;;;;;25.20;10.30;;;;;;;;;;5120312;27;20043;-88
2021/12/17 09:45:20;;;;;;;25.38;10.20;;;;;;;;;;5137851;27;20392;-89
2021/12/17 09:47:49;;;;;;;21.00;9.82;;;;;;;;;;5121881;27;20082;-88
2021/12/17 09:50:16;;;;;;;19.42;9.43;;;;;;;;;;5122078;27;20187;-90
2021/12/17 09:52:42;;;;;;;18.20;9.63;;;;;;;;;;5138002;27;20043;-89
2021/12/17 09:55:09;;;;;;;20.52;9.07;;;;;;;;;;5120635;27;20038;-90
2021/12/17 09:57:36;;;;;;;19.45;8.32;;;;;;;;;;5119995;27;20054;-89
2021/12/17 10:00:11;;;;;;;20.52;9.05;;;;;;;;;;5138314;27;20129;-90
2021/12/17 10:02:37;;;;;;;17.55;8.25;;;;;;;;;;5120273;27;20095;-90
2021/12/17 10:05:07;;;;;;;17.00;8.70;;;;;;;;;;5137456;27;20039;-89
2021/12/17 10:07:33;;;;;;;21.38;8.95;;;;;;;;;;5136928;27;20051;-89
2021/12/17 10:10:01;;;;;;;19.85;8.57;;;;;;;;;;5121448;27;20142;-90
2021/12/17 10:12:32;;;;;;;21.08;8.93;;;;;;;;;;5140760;27;20043;-89
2021/12/17 10:15:02;;;;;;;18.30;8.10;;;;;;;;;;5124557;27;20045;-89
2021/12/17 10:17:29;;;;;;;20.15;8.73;;;;;;;;;;5141366;27;20092;-89
2021/12/17 10:19:56;;;;;;;15.77;8.43;;;;;;;;;;5123340;27;20043;-89
2021/12/17 10:22:23;;;;;;;15.88;8.30;;;;;;;;;;5124219;27;20410;-89
2021/12/17 10:25:16;;;;;;;21.67;7.90;;;;;;;;;;5124983;27;20051;-89
2021/12/17 10:27:43;;;;;;;10.45;6.50;;;;;;;;;;5120324;27;20491;-89
2021/12/17 10:30:12;;;;;;;16.63;7.13;;;;;;;;;;5124522;27;20041;-89
2021/12/17 10:32:40;;;;;;;20.50;7.38;;;;;;;;;;5125190;27;20051;-89
2021/12/17 10:35:08;;;;;;;13.77;7.35;;;;;;;;;;5123498;27;20084;-89
2021/12/17 10:37:34;;;;;;;14.50;7.07;;;;;;;;;;5140814;27;20039;-89
2021/12/17 10:40:00;;;;;;;15.07;7.15;;;;;;;;;;5141341;27;20050;-89
2021/12/17 10:42:32;;;;;;;13.75;7.53;;;;;;;;;;5140808;27;20046;-89
2021/12/17 10:45:06;;;;;;;11.13;6.82;;;;;;;;;;5123675;27;20483;-89
2021/12/17 10:47:35;;;;;;;15.75;7.03;;;;;;;;;;5123062;27;20126;-89
2021/12/17 10:50:02;;;;;;;16.75;7.13;;;;;;;;;;5141849;27;20047;-89
2021/12/17 10:52:44;;;;;;;15.80;6.95;;;;;;;;;;5124105;27;20042;-89
2021/12/17 10:55:15;;;;;;;10.23;5.70;;;;;;;;;;5123864;27;20043;-89
2021/12/17 10:57:42;;;;;;;9.63;6.38;;;;;;;;;;5126468;27;20089;-89
2021/12/17 11:00:12;;;;;;;10.63;6.30;;;;;;;;;;5141833;27;20084;-89
2021/12/17 11:02:47;;;;;;;11.95;6.70;;;;;;;;;;5123626;27;20050;-90
2021/12/17 11:05:14;;;;;;;9.77;5.55;;;;;;;;;;5123467;27;20083;-90
2021/12/17 11:07:44;;;;;;;10.57;5.55;;;;;;;;;;5140653;27;20055;-90
2021/12/17 11:10:10;;;;;;;10.60;5.60;;;;;;;;;;5141624;27;20046;-89
2021/12/17 11:12:38;;;;;;;8.98;5.30;;;;;;;;;;5140802;27;20527;-89
2021/12/17 11:15:07;;;;;;;9.10;6.10;;;;;;;;;;5122502;27;20084;-89
2021/12/17 11:17:33;;;;;;;8.38;5.82;;;;;;;;;;5140286;27;20041;-89
2021/12/17 11:20:02;;;;;;;9.02;5.60;;;;;;;;;;5123555;27;20125;-89
2021/12/17 11:22:29;;;;;;;7.15;4.68;;;;;;;;;;5139349;27;20067;-88
2021/12/17 11:24:56;;;;;;;10.25;6.10;;;;;;;;;;5122641;27;20042;-90
2021/12/17 11:27:22;;;;;;;8.63;5.40;;;;;;;;;;5123392;27;20109;-90
2021/12/17 11:29:49;;;;;;;8.70;5.35;;;;;;;;;;5122684;27;20046;-90
2021/12/17 11:32:18;;;;;;;12.35;5.78;;;;;;;;;;5140725;27;20054;-91
2021/12/17 11:34:44;;;;;;;9.25;5.50;;;;;;;;;;5123253;27;20034;-91
2021/12/17 11:37:11;;;;;;;9.13;6.25;;;;;;;;;;5122898;27;20046;-91
2021/12/17 11:39:42;;;;;;;10.45;6.28;;;;;;;;;;5122391;27;20078;-90
2021/12/17 11:42:16;;;;;;;8.88;5.95;;;;;;;;;;5122803;27;20055;-91
2021/12/17 11:44:51;;;;;;;;;;;9.20;99.90;;;;;;5124140;27;20055;-90
2021/12/17 11:47:18;;;;;;;12.13;5.97;;;;;;;;;;5124083;27;19919;-90
2021/12/17 11:49:49;;;;;;;7.32;5.32;;;;;;;;;;5123100;27;20470;-90
2021/12/17 11:52:34;;;;;;;7.60;5.22;;;;;;;;;;5122503;27;20054;-91
2021/12/17 11:55:18;;;;;;;;;;;9.30;99.90;;;;;;5123687;27;20039;-91
2021/12/17 11:57:44;;;;;;;12.30;6.13;;;;;;;;;;5122312;27;19919;-90
2021/12/17 12:00:19;;;;;;;8.52;4.75;;;;;;;;;;5123245;27;20049;-91
2021/12/17 12:02:53;;;;;;;8.10;5.35;;;;;;;;;;5140984;27;20116;-91
2021/12/17 12:05:46;;;;;;;5.72;4.68;;;;;;;;;;5122832;27;20039;-91
2021/12/17 12:08:24;;;;;;;6.63;4.68;;;;;;;;;;5117932;27;20053;-91
2021/12/17 12:11:10;;;;;;;6.25;4.50;;;;;;;;;;5139435;27;20038;-90
2021/12/17 12:13:44;;;;;;;6.45;3.80;;;;;;;;;;5020300;28;20152;-91
2021/12/17 12:16:12;;;;;;;5.00;4.30;;;;;;;;;;5036395;28;20056;-90
2021/12/17 12:18:58;;;;;;;7.68;4.40;;;;;;;;;;5020270;28;20140;-90
2021/12/17 12:21:25;;;;;;;4.97;4.00;;;;;;;;;;5016103;28;20053;-90
2021/12/17 12:23:54;;;;;;;5.53;4.18;;;;;;;;;;5019917;28;20087;-90
2021/12/17 12:26:22;;;;;;;7.57;4.35;;;;;;;;;;5020340;28;20079;-90
2021/12/17 12:28:48;;;;;;;8.73;4.50;;;;;;;;;;5020301;28;20048;-89
2021/12/17 12:31:14;;;;;;;7.13;4.07;;;;;;;;;;5036768;28;20136;-89
2021/12/17 12:34:07;;;;;;;5.63;4.30;;;9.30;99.90;;;;;;5036368;28;20497;-90
2021/12/17 12:36:54;;;;;;;5.78;4.50;;;;;;;;;;5019654;28;20051;-89
2021/12/17 12:39:29;;;;;;;6.07;5.00;;;;;;;;;;5037158;28;20052;-89
2021/12/17 12:41:56;;;;;;;6.13;4.57;;;;;;;;;;5019750;28;20056;-89
2021/12/17 12:44:42;;;;;;;7.20;4.65;;;9.60;99.90;;;;;;5020469;28;20409;-89
2021/12/17 12:47:14;;;;;;;6.28;4.28;;;9.40;99.90;;;;;;5015948;28;20052;-89
2021/12/17 12:49:52;;;;;;;5.72;4.07;;;9.40;99.90;;;;;;5028216;27;20401;-89
2021/12/17 12:52:21;;;;;;;6.68;4.05;;;;;;;;;;5120710;27;20038;-88
2021/12/17 12:54:54;;;;;;;4.22;3.55;;;;;;;;;;5121071;27;20367;-89
2021/12/17 12:57:25;;;;;;;3.88;3.05;;;;;;;;;;5121065;27;20042;-90
2021/12/17 12:59:55;;;;;;;5.30;3.10;;;;;;;;;;5121061;27;20042;-89
2021/12/17 13:02:21;;;;;;;8.70;3.67;;;;;;;;;;5120569;27;20050;-89
2021/12/17 13:04:49;;;;;;;4.60;3.70;;;;;;;;;;5138773;27;20046;-88
2021/12/17 13:07:15;;;;;;;7.65;3.95;;;;;;;;;;5120034;27;20137;-89
2021/12/17 13:09:44;;;;;;;3.92;3.25;;;;;;;;;;5120528;27;20049;-89
2021/12/17 13:12:11;;;;;;;5.22;3.95;;;;;;;;;;5120589;27;20034;-89
2021/12/17 13:14:43;;;;;;;6.47;3.85;;;;;;;;;;5138248;27;20047;-89
2021/12/17 13:17:41;;;;;;;3.97;3.38;;;;;;;;;;5156444;27;20490;-89
2021/12/17 13:20:42;;;;;;;4.80;4.00;;;;;;;;;;5138084;27;20512;-89
2021/12/17 13:23:18;;;;;;;5.25;3.40;;;;;;;;;;5138041;27;20125;-89
2021/12/17 13:25:44;;;;;;;4.65;3.67;;;;;;;;;;5121312;27;20133;-89
2021/12/17 13:28:10;;;;;;;4.05;3.65;;;;;;;;;;5121325;27;20078;-89
2021/12/17 13:30:37;;;;;;;5.90;3.45;;;;;;;;;;5121109;27;20049;-88
2021/12/17 13:33:03;;;;;;;4.35;3.40;;;;;;;;;;5137805;27;20074;-89
2021/12/17 13:35:33;;;;;;;4.53;3.90;;;;;;;;;;5137945;27;20043;-88
2021/12/17 13:38:03;;;;;;;5.65;3.80;;;;;;;;;;5120815;27;20443;-89
2021/12/17 13:40:35;;;;;;;4.65;4.05;;;;;;;;;;5120358;27;20043;-87
2021/12/17 13:43:02;;;;;;;5.60;4.40;;;;;;;;;;5137293;27;20046;-87
2021/12/17 13:45:30;;;;;;;5.18;4.07;;;;;;;;;;5103441;27;20039;-87
2021/12/17 13:47:57;;;;;;;5.13;4.13;;;;;;;;;;5124211;27;20039;-87
2021/12/17 13:50:30;;;;;;;6.15;4.20;;;;;;;;;;5124546;27;20487;-87
2021/12/17 13:52:58;;;;;;;6.43;4.53;;;;;;;;;;5141517;27;20046;-87
2021/12/17 13:55:27;;;;;;;4.93;3.97;;;;;;;;;;5124171;27;20053;-87
2021/12/17 13:57:53;;;;;;;5.40;4.22;;;;;;;;;;5141319;27;20046;-86
2021/12/17 14:00:21;;;;;;;5.15;4.20;;;;;;;;;;5124613;27;20050;-87
2021/12/17 14:02:48;;;;;;;5.28;4.13;;;;;;;;;;5124366;27;20509;-87
2021/12/17 14:05:26;;;;;;;4.40;3.65;;;;;;;;;;5125563;27;20439;-87
2021/12/17 14:07:52;;;;;;;4.72;3.88;;;;;;;;;;5121470;27;20051;-87
2021/12/17 14:10:29;;;;;;;4.20;3.58;;;;;;;;;;5139094;27;20031;-87
2021/12/17 14:12:55;;;;;;;5.95;4.75;;;;;;;;;;5139022;27;20043;-87
2021/12/17 14:15:23;;;;;;;5.78;4.20;;;;;;;;;;5122167;27;20083;-87
2021/12/17 14:17:53;;;;;;;7.47;3.92;;;9.50;99.90;;;;;;5141595;27;20082;-87
2021/12/17 14:20:20;;;;;;;4.43;3.55;;;;;;;;;;5126591;27;20404;-87
2021/12/17 14:22:48;;;;;;;6.95;4.15;;;;;;;;;;5142813;27;20043;-87
2021/12/17 14:25:27;;;;;;;5.00;3.75;;;;;;;;;;5126428;27;20140;-88
2021/12/17 14:27:54;;;;;;;4.25;3.53;;;;;;;;;;5140840;27;20047;-88
2021/12/17 14:30:39;;;;;;;6.05;4.03;;;;;;;;;;5122386;27;20088;-88
2021/12/17 14:33:08;;;;;;;5.32;3.97;;;;;;;;;;5122861;27;20047;-89
2021/12/17 14:35:41;;;;;;;4.97;3.35;;;;;;;;;;5139548;27;20043;-88
2021/12/17 14:38:08;;;;;;;5.72;3.50;;;;;;;;;;5137543;27;20515;-88
2021/12/17 14:40:46;;;;;;;5.53;3.33;;;;;;;;;;5137721;27;20468;-88
2021/12/17 14:43:27;;;;;;;5.13;3.75;;;;;;;;;;5137618;27;20043;-87
2021/12/17 14:45:58;;;;;;;5.63;3.60;;;;;;;;;;5137963;27;20108;-88
2021/12/17 14:48:36;;;;;;;7.03;3.85;;;;;;;;;;5121424;27;20051;-88
2021/12/17 15:04:36;;;;;;;8.40;4.32;;;;;;;;;;5137883;27;20100;-88
2021/12/17 15:07:02;;;;;;;8.23;4.32;;;;;;;;;;5119447;27;20107;-88
2021/12/17 15:09:32;;;;;;;8.35;4.13;;;;;;;;;;5120986;27;20387;-87
2021/12/17 15:12:00;;;;;;;5.63;4.45;;;;;;;;;;5137312;27;20501;-87
2021/12/17 15:14:26;;;;;;;5.75;4.50;;;;;;;;;;5120159;27;20054;-87
2021/12/17 15:16:54;;;;;;;5.25;4.53;;;;;;;;;;5137163;27;20039;-87
2021/12/17 15:19:20;;;;;;;5.13;4.15;;;;;;;;;;5138041;27;20103;-88
2021/12/17 15:21:46;;;;;;;8.30;4.70;;;;;;;;;;5136454;27;20054;-88
2021/12/17 15:24:12;;;;;;;8.02;4.65;;;;;;;;;;5120028;27;20039;-88
2021/12/17 15:26:38;;;;;;;10.75;4.38;;;;;;;;;;5120262;27;20043;-88
2021/12/17 15:29:05;;;;;;;6.30;4.95;;;;;;;;;;5119184;27;20133;-89
2021/12/17 15:31:31;;;;;;;8.48;4.32;;;;;;;;;;5119275;27;20051;-88
2021/12/17 15:33:57;;;;;;;6.95;4.80;;;;;;;;;;5136729;27;20040;-89
2021/12/17 15:36:23;;;;;;;8.02;5.22;;;;;;;;;;5120706;27;20047;-89
2021/12/17 15:38:49;;;;;;;12.52;5.20;;;;;;;;;;5136671;27;20044;-88
2021/12/17 15:41:15;;;;;;;10.30;5.78;;;;;;;;;;5137104;27;20066;-88
2021/12/17 15:43:41;;;;;;;9.88;5.38;;;;;;;;;;5119609;27;20484;-88
2021/12/17 15:46:07;;;;;;;8.38;5.07;;;;;;;;;;5120617;27;20036;-88
2021/12/17 15:48:33;;;;;;;11.32;5.95;;;;;;;;;;5135460;27;20096;-88
2021/12/17 15:50:59;;;;;;;10.50;6.35;;;;;;;;;;5136692;27;20046;-88
2021/12/17 15:53:25;;;;;;;14.40;5.75;;;;;;;;;;5136144;27;20499;-89
2021/12/17 15:55:51;;;;;;;11.75;6.32;;;;;;;;;;5119158;27;20613;-90
2021/12/17 15:58:17;;;;;;;10.60;6.57;;;;;;;;;;5119094;27;20047;-90
2021/12/17 16:00:44;;;;;;;7.15;5.50;;;;;;;;;;5136884;27;20117;-89
2021/12/17 16:03:11;;;;;;;11.77;5.72;;;;;;;;;;5118696;27;20043;-89
2021/12/17 16:05:37;;;;;;;11.23;6.75;;;;;;;;;;5136014;27;20118;-87
2021/12/17 16:08:04;;;;;;;9.48;6.05;;;;;;;;;;5134989;27;20066;-87
2021/12/17 16:18:56;;;;;;;11.85;6.07;;;;;;;;;;5136898;27;20444;-87
2021/12/17 16:21:23;;;;;;;13.55;6.07;;;;;;;;;;5119264;27;20081;-87
2021/12/17 16:23:52;;;;;;;10.75;5.53;;;9.10;99.90;;;;;;5119157;27;20043;-87
2021/12/17 16:26:21;;;;;;;8.57;5.30;;;8.90;99.90;;;;;;5118488;27;20039;-87
2021/12/17 16:28:47;;;;;;;6.40;4.60;;;;;;;;;;5117873;27;20043;-87
2021/12/17 16:31:15;;;;;;;5.47;3.85;;;;;;;;;;5118411;27;20046;-87
2021/12/17 16:33:42;;;;;;;7.25;3.80;;;;;;;;;;5136032;27;20043;-87
2021/12/17 16:36:08;;;;;;;6.63;3.83;;;;;;;;;;5135288;27;20398;-87
2021/12/17 16:38:35;;;;;;;7.78;3.78;;;;;;;;;;5117861;27;20531;-87
2021/12/17 16:41:02;;;;;;;10.13;4.00;;;;;;;;;;5117736;27;20100;-87
2021/12/17 16:43:28;;;;;;;11.50;4.18;;;;;;;;;;5118732;27;20477;-87
2021/12/17 16:46:10;;;;;;;6.10;4.22;;;;;;;;;;5117226;27;20086;-87
2021/12/17 16:48:40;;;;;;;8.68;3.60;;;;;;;;;;5117451;27;20050;-87
2021/12/17 16:51:06;;;;;;;8.95;3.75;;;;;;;;;;5134452;27;20103;-87
2021/12/17 16:53:32;;;;;;;6.55;4.28;;;;;;;;;;5117624;27;20074;-87
2021/12/17 16:55:58;;;;;;;5.03;3.75;;;;;;;;;;5117489;27;20039;-87
2021/12/17 16:58:25;;;;;;;8.15;4.55;;;;;;;;;;5117876;27;20047;-87
2021/12/17 17:00:51;;;;;;;6.85;4.30;;;;;;;;;;5117793;27;20039;-87
2021/12/17 17:03:18;;;;;;;5.43;3.88;;;;;;;;;;5134662;27;20062;-87
2021/12/17 17:05:44;;;;;;;6.38;3.80;;;;;;;;;;5117856;27;20103;-87
2021/12/17 17:08:10;;;;;;;4.53;3.25;;;;;;;;;;5116820;27;20580;-87
2021/12/17 17:10:36;;;;;;;3.95;2.88;;;;;;;;;;5117253;27;20391;-87
2021/12/17 17:13:04;;;;;;;5.05;3.45;;;8.70;99.90;;;;;;5116977;27;20039;-87
2021/12/17 17:15:34;;;;;;;5.93;2.92;;;;;;;;;;5118023;27;20391;-87
2021/12/17 17:18:07;;;;;;;4.30;2.72;;;;;;;;;;5117291;27;20428;-87
2021/12/17 17:20:34;;;;;;;4.33;2.77;;;;;;;;;;5133779;27;20042;-86
2021/12/17 17:23:00;;;;;;;3.90;2.90;;;8.60;99.90;;;;;;5116756;28;20365;-86
2021/12/17 17:25:27;;;;;;;5.10;3.75;;;;;;;;;;5118225;28;20035;-86
2021/12/17 17:27:53;;;;;;;4.95;3.08;;;;;;;;;;5133975;28;20043;-87
2021/12/17 17:30:20;;;;;;;5.38;3.20;;;;;;;;;;5133887;28;20043;-87
2021/12/17 17:32:47;;;;;;;3.47;2.83;;;;;;;;;;5133593;28;20047;-87
2021/12/17 17:35:13;;;;;;;6.25;3.53;;;;;;;;;;5117270;28;20095;-87
2021/12/17 17:37:39;;;;;;;5.50;3.40;;;;;;;;;;5134600;28;20043;-86
2021/12/17 17:40:07;;;;;;;5.53;3.72;;;;;;;;;;5134183;28;20043;-87
2021/12/17 17:42:33;;;;;;;4.22;2.90;;;;;;;;;;5117143;28;20404;-87
2021/12/17 17:44:59;;;;;;;3.88;2.88;;;;;;;;;;5117176;28;20035;-87